sensor_id;sensor_type;location;lat;lon;timestamp;pressure;altitude;pressure_sealevel;temperature;humidity
49571;BME280;36970;39.352;20.286;2022-09-21T00:05:01;99331.50;;;20.08;52.78
49571;BME280;36970;39.352;20.286;2022-09-21T00:35:18;99324.94;;;18.77;59.79
49571;BME280;36970;39.352;20.286;2022-09-21T01:05:36;99304.47;;;18.56;63.48
49571;BME280;36970;39.352;20.286;2022-09-21T01:35:56;99277.59;;;18.22;61.49
49571;BME280;36970;39.352;20.286;2022-09-21T02:06:18;99299.50;;;19.14;60.86
49571;BME280;36970;39.352;20.286;2022-09-21T02:36:41;99280.75;;;18.56;74.44
49571;BME280;36970;39.352;20.286;2022-09-21T03:07:01;99281.41;;;17.65;80.29
49571;BME280;36970;39.352;20.286;2022-09-21T03:37:18;99290.50;;;18.09;71.12
49571;BME280;36970;39.352;20.286;2022-09-21T04:07:36;99315.13;;;18.24;71.27
49571;BME280;36970;39.352;20.286;2022-09-21T04:37:55;99343.41;;;17.68;75.91
49571;BME280;36970;39.352;20.286;2022-09-21T05:38:30;99354.88;;;19.14;68.72
49571;BME280;36970;39.352;20.286;2022-09-21T06:39:18;99405.19;;;20.17;62.39
49571;BME280;36970;39.352;20.286;2022-09-21T07:09:36;99430.38;;;20.42;68.96
49571;BME280;36970;39.352;20.286;2022-09-21T07:39:53;99430.47;;;20.63;45.67
49571;BME280;36970;39.352;20.286;2022-09-21T08:10:11;99466.75;;;18.35;79.52
49571;BME280;36970;39.352;20.286;2022-09-21T09:10:55;99419.50;;;21.09;52.48
49571;BME280;36970;39.352;20.286;2022-09-21T10:12:00;99383.63;;;22.86;43.03
49571;BME280;36970;39.352;20.286;2022-09-21T10:42:18;99362.78;;;23.76;40.80
49571;BME280;36970;39.352;20.286;2022-09-21T11:12:46;99372.84;;;22.20;47.15
49571;BME280;36970;39.352;20.286;2022-09-21T11:43:18;99351.56;;;22.07;49.62
49571;BME280;36970;39.352;20.286;2022-09-21T12:13:41;99316.38;;;23.91;35.55
49571;BME280;36970;39.352;20.286;2022-09-21T12:44:08;99276.22;;;25.80;32.38
49571;BME280;36970;39.352;20.286;2022-09-21T13:14:32;99260.34;;;27.05;33.35
49571;BME280;36970;39.352;20.286;2022-09-21T13:44:51;99247.81;;;25.92;35.85
49571;BME280;36970;39.352;20.286;2022-09-21T14:45:51;99218.47;;;26.76;36.05
49571;BME280;36970;39.352;20.286;2022-09-21T15:16:18;99236.47;;;23.73;45.65
49571;BME280;36970;39.352;20.286;2022-09-21T15:46:39;99266.69;;;23.14;46.94
49571;BME280;36970;39.352;20.286;2022-09-21T16:17:23;99277.06;;;21.95;52.67
49571;BME280;36970;39.352;20.286;2022-09-21T16:47:41;99313.47;;;20.61;60.05
49571;BME280;36970;39.352;20.286;2022-09-21T17:17:58;99322.66;;;20.15;65.73
49571;BME280;36970;39.352;20.286;2022-09-21T17:48:18;99357.78;;;20.01;66.90
49571;BME280;36970;39.352;20.286;2022-09-21T18:18:42;99381.16;;;19.89;51.76
49571;BME280;36970;39.352;20.286;2022-09-21T18:49:08;99380.44;;;19.81;48.05
49571;BME280;36970;39.352;20.286;2022-09-21T19:19:33;99368.63;;;19.55;44.33
49571;BME280;36970;39.352;20.286;2022-09-21T20:20:23;99373.69;;;19.11;42.92
49571;BME280;36970;39.352;20.286;2022-09-21T20:50:42;99389.38;;;18.74;44.67
49571;BME280;36970;39.352;20.286;2022-09-21T21:21:01;99398.22;;;18.51;41.93
49571;BME280;36970;39.352;20.286;2022-09-21T21:51:19;99395.47;;;18.36;43.00
49571;BME280;36970;39.352;20.286;2022-09-21T22:21:39;99393.88;;;17.63;44.78
49571;BME280;36970;39.352;20.286;2022-09-21T22:51:57;99401.84;;;16.56;46.86
49571;BME280;36970;39.352;20.286;2022-09-21T23:22:15;99405.09;;;17.65;45.62
49571;BME280;36970;39.352;20.286;2022-09-21T23:52:32;99407.50;;;17.35;46.67
